sensor_id;sensor_type;location;lat;lon;timestamp;pressure;altitude;pressure_sealevel;temperature;humidity
41706;BME280;27385;51.096;17.190;2023-07-29T00:01:53;99632.08;;;17.96;78.65
41706;BME280;27385;51.096;17.190;2023-07-29T00:04:23;99632.16;;;17.95;78.64
41706;BME280;27385;51.096;17.190;2023-07-29T00:06:54;99631.73;;;17.93;78.58
41706;BME280;27385;51.096;17.190;2023-07-29T00:09:25;99626.13;;;17.91;78.77
41706;BME280;27385;51.096;17.190;2023-07-29T00:11:56;99627.73;;;17.87;78.79
41706;BME280;27385;51.096;17.190;2023-07-29T00:14:26;99622.77;;;17.85;78.78
41706;BME280;27385;51.096;17.190;2023-07-29T00:16:57;99621.33;;;17.82;78.85
41706;BME280;27385;51.096;17.190;2023-07-29T00:19:28;99615.31;;;17.79;78.77
41706;BME280;27385;51.096;17.190;2023-07-29T00:21:59;99618.52;;;17.79;78.78
41706;BME280;27385;51.096;17.190;2023-07-29T00:24:29;99628.79;;;17.76;78.87
41706;BME280;27385;51.096;17.190;2023-07-29T00:27:00;99627.77;;;17.70;78.99
41706;BME280;27385;51.096;17.190;2023-07-29T00:29:31;99633.27;;;17.64;79.10
41706;BME280;27385;51.096;17.190;2023-07-29T00:32:02;99636.10;;;17.59;79.10
41706;BME280;27385;51.096;17.190;2023-07-29T00:34:33;99633.34;;;17.55;78.96
41706;BME280;27385;51.096;17.190;2023-07-29T00:37:04;99627.52;;;17.54;79.22
41706;BME280;27385;51.096;17.190;2023-07-29T00:39:35;99631.54;;;17.50;79.19
41706;BME280;27385;51.096;17.190;2023-07-29T00:42:07;99630.12;;;17.48;79.17
41706;BME280;27385;51.096;17.190;2023-07-29T00:44:37;99631.48;;;17.45;79.35
41706;BME280;27385;51.096;17.190;2023-07-29T00:47:09;99634.34;;;17.42;79.46
41706;BME280;27385;51.096;17.190;2023-07-29T00:49:41;99636.12;;;17.37;79.44
41706;BME280;27385;51.096;17.190;2023-07-29T00:52:12;99641.15;;;17.34;79.67
41706;BME280;27385;51.096;17.190;2023-07-29T00:54:43;99639.89;;;17.30;79.78
41706;BME280;27385;51.096;17.190;2023-07-29T00:57:15;99643.11;;;17.28;79.77
41706;BME280;27385;51.096;17.190;2023-07-29T00:59:50;99640.56;;;17.24;79.99
41706;BME280;27385;51.096;17.190;2023-07-29T01:02:22;99640.69;;;17.20;80.43
41706;BME280;27385;51.096;17.190;2023-07-29T01:04:55;99636.77;;;17.18;80.56
41706;BME280;27385;51.096;17.190;2023-07-29T01:07:32;99643.46;;;17.14;80.47
41706;BME280;27385;51.096;17.190;2023-07-29T01:10:10;99639.70;;;17.11;80.35
41706;BME280;27385;51.096;17.190;2023-07-29T01:12:48;99635.65;;;17.09;80.30
41706;BME280;27385;51.096;17.190;2023-07-29T01:15:26;99631.21;;;17.07;80.37
41706;BME280;27385;51.096;17.190;2023-07-29T01:18:04;99630.50;;;17.02;80.49
41706;BME280;27385;51.096;17.190;2023-07-29T01:20:38;99635.16;;;16.97;80.55
41706;BME280;27385;51.096;17.190;2023-07-29T01:23:10;99633.19;;;16.93;80.60
41706;BME280;27385;51.096;17.190;2023-07-29T01:25:41;99631.23;;;16.90;80.79
41706;BME280;27385;51.096;17.190;2023-07-29T01:28:12;99631.20;;;16.86;80.70
41706;BME280;27385;51.096;17.190;2023-07-29T01:30:44;99631.08;;;16.83;81.03
41706;BME280;27385;51.096;17.190;2023-07-29T01:33:18;99630.90;;;16.79;81.12
41706;BME280;27385;51.096;17.190;2023-07-29T01:35:57;99636.60;;;16.75;81.23
41706;BME280;27385;51.096;17.190;2023-07-29T01:38:33;99639.02;;;16.71;81.32
41706;BME280;27385;51.096;17.190;2023-07-29T01:41:08;99637.55;;;16.71;81.32
41706;BME280;27385;51.096;17.190;2023-07-29T01:43:39;99642.28;;;16.69;81.43
41706;BME280;27385;51.096;17.190;2023-07-29T01:46:13;99642.50;;;16.65;81.83
41706;BME280;27385;51.096;17.190;2023-07-29T01:48:44;99636.23;;;16.60;81.99
41706;BME280;27385;51.096;17.190;2023-07-29T01:51:15;99635.11;;;16.55;82.02
41706;BME280;27385;51.096;17.190;2023-07-29T01:53:46;99636.80;;;16.52;82.10
41706;BME280;27385;51.096;17.190;2023-07-29T01:56:17;99634.73;;;16.47;82.21
41706;BME280;27385;51.096;17.190;2023-07-29T01:58:48;99641.53;;;16.45;82.41
41706;BME280;27385;51.096;17.190;2023-07-29T02:01:18;99645.34;;;16.42;82.41
41706;BME280;27385;51.096;17.190;2023-07-29T02:03:49;99646.59;;;16.39;82.46
41706;BME280;27385;51.096;17.190;2023-07-29T02:06:24;99647.89;;;16.38;82.49
41706;BME280;27385;51.096;17.190;2023-07-29T02:08:56;99651.76;;;16.36;82.42
41706;BME280;27385;51.096;17.190;2023-07-29T02:11:27;99649.84;;;16.34;82.40
41706;BME280;27385;51.096;17.190;2023-07-29T02:13:58;99644.96;;;16.31;82.46
41706;BME280;27385;51.096;17.190;2023-07-29T02:16:29;99644.33;;;16.29;82.57
41706;BME280;27385;51.096;17.190;2023-07-29T02:18:59;99638.17;;;16.26;82.59
41706;BME280;27385;51.096;17.190;2023-07-29T02:21:30;99640.70;;;16.22;82.61
41706;BME280;27385;51.096;17.190;2023-07-29T02:24:01;99639.23;;;16.17;82.80
41706;BME280;27385;51.096;17.190;2023-07-29T02:26:32;99641.45;;;16.13;82.80
41706;BME280;27385;51.096;17.190;2023-07-29T02:29:03;99635.83;;;16.12;82.62
41706;BME280;27385;51.096;17.190;2023-07-29T02:31:34;99633.65;;;16.11;82.52
41706;BME280;27385;51.096;17.190;2023-07-29T02:34:06;99631.96;;;16.08;82.69
41706;BME280;27385;51.096;17.190;2023-07-29T02:36:37;99624.77;;;16.05;82.85
41706;BME280;27385;51.096;17.190;2023-07-29T02:39:09;99621.54;;;16.02;82.96
41706;BME280;27385;51.096;17.190;2023-07-29T02:41:39;99618.08;;;16.00;83.15
41706;BME280;27385;51.096;17.190;2023-07-29T02:44:10;99619.88;;;15.96;83.43
41706;BME280;27385;51.096;17.190;2023-07-29T02:46:41;99621.63;;;15.91;83.52
41706;BME280;27385;51.096;17.190;2023-07-29T02:49:12;99623.20;;;15.88;83.62
41706;BME280;27385;51.096;17.190;2023-07-29T02:51:43;99624.00;;;15.85;83.73
41706;BME280;27385;51.096;17.190;2023-07-29T02:54:13;99626.01;;;15.84;83.55
41706;BME280;27385;51.096;17.190;2023-07-29T02:56:44;99623.08;;;15.81;83.58
41706;BME280;27385;51.096;17.190;2023-07-29T02:59:15;99620.08;;;15.79;83.56
41706;BME280;27385;51.096;17.190;2023-07-29T03:01:46;99622.40;;;15.78;83.62
41706;BME280;27385;51.096;17.190;2023-07-29T03:04:16;99628.48;;;15.74;83.47
41706;BME280;27385;51.096;17.190;2023-07-29T03:06:47;99625.15;;;15.71;83.77
41706;BME280;27385;51.096;17.190;2023-07-29T03:09:18;99625.59;;;15.68;83.77
41706;BME280;27385;51.096;17.190;2023-07-29T03:11:49;99624.95;;;15.66;83.83
41706;BME280;27385;51.096;17.190;2023-07-29T03:14:21;99627.80;;;15.62;83.88
41706;BME280;27385;51.096;17.190;2023-07-29T03:16:51;99633.73;;;15.59;84.10
41706;BME280;27385;51.096;17.190;2023-07-29T03:19:22;99640.65;;;15.58;84.25
41706;BME280;27385;51.096;17.190;2023-07-29T03:21:53;99641.58;;;15.56;84.26
41706;BME280;27385;51.096;17.190;2023-07-29T03:24:24;99640.33;;;15.53;84.39
41706;BME280;27385;51.096;17.190;2023-07-29T03:26:55;99637.84;;;15.52;84.75
41706;BME280;27385;51.096;17.190;2023-07-29T03:29:26;99637.90;;;15.51;84.79
41706;BME280;27385;51.096;17.190;2023-07-29T03:31:58;99634.61;;;15.52;84.96
41706;BME280;27385;51.096;17.190;2023-07-29T03:34:28;99636.51;;;15.52;85.05
41706;BME280;27385;51.096;17.190;2023-07-29T03:37:00;99638.04;;;15.53;84.92
41706;BME280;27385;51.096;17.190;2023-07-29T03:39:31;99647.63;;;15.55;85.11
41706;BME280;27385;51.096;17.190;2023-07-29T03:42:02;99647.25;;;15.56;85.27
41706;BME280;27385;51.096;17.190;2023-07-29T03:44:33;99645.48;;;15.59;85.41
41706;BME280;27385;51.096;17.190;2023-07-29T03:47:05;99645.80;;;15.63;85.35
41706;BME280;27385;51.096;17.190;2023-07-29T03:49:36;99647.14;;;15.67;85.75
41706;BME280;27385;51.096;17.190;2023-07-29T03:52:07;99651.58;;;15.69;85.96
41706;BME280;27385;51.096;17.190;2023-07-29T03:54:38;99642.77;;;15.69;86.50
41706;BME280;27385;51.096;17.190;2023-07-29T03:57:09;99649.90;;;15.67;86.61
41706;BME280;27385;51.096;17.190;2023-07-29T03:59:40;99648.81;;;15.69;86.69
41706;BME280;27385;51.096;17.190;2023-07-29T04:02:11;99651.45;;;15.71;86.89
41706;BME280;27385;51.096;17.190;2023-07-29T04:04:41;99651.48;;;15.72;87.22
41706;BME280;27385;51.096;17.190;2023-07-29T04:07:13;99655.24;;;15.74;87.04
41706;BME280;27385;51.096;17.190;2023-07-29T04:09:44;99657.81;;;15.78;87.09
41706;BME280;27385;51.096;17.190;2023-07-29T04:12:15;99659.25;;;15.82;87.62
41706;BME280;27385;51.096;17.190;2023-07-29T04:14:46;99656.20;;;15.85;87.68
41706;BME280;27385;51.096;17.190;2023-07-29T04:17:17;99659.61;;;15.88;88.04
41706;BME280;27385;51.096;17.190;2023-07-29T04:19:47;99659.93;;;15.89;88.04
41706;BME280;27385;51.096;17.190;2023-07-29T04:22:18;99660.16;;;15.92;88.14
41706;BME280;27385;51.096;17.190;2023-07-29T04:24:49;99661.86;;;15.95;88.33
41706;BME280;27385;51.096;17.190;2023-07-29T04:27:20;99660.43;;;15.98;88.50
41706;BME280;27385;51.096;17.190;2023-07-29T04:29:51;99660.13;;;16.03;88.74
41706;BME280;27385;51.096;17.190;2023-07-29T04:32:21;99659.85;;;16.08;88.98
41706;BME280;27385;51.096;17.190;2023-07-29T04:34:52;99662.86;;;16.13;89.21
41706;BME280;27385;51.096;17.190;2023-07-29T04:37:23;99661.14;;;16.19;89.35
41706;BME280;27385;51.096;17.190;2023-07-29T04:39:54;99661.73;;;16.25;89.88
41706;BME280;27385;51.096;17.190;2023-07-29T04:42:25;99658.58;;;16.32;89.91
41706;BME280;27385;51.096;17.190;2023-07-29T04:44:55;99661.21;;;16.37;90.08
41706;BME280;27385;51.096;17.190;2023-07-29T04:47:26;99658.98;;;16.43;90.24
41706;BME280;27385;51.096;17.190;2023-07-29T04:49:57;99661.64;;;16.48;90.42
41706;BME280;27385;51.096;17.190;2023-07-29T04:52:28;99657.73;;;16.54;90.66
41706;BME280;27385;51.096;17.190;2023-07-29T04:54:59;99658.98;;;16.60;90.70
41706;BME280;27385;51.096;17.190;2023-07-29T04:57:30;99657.69;;;16.64;90.72
41706;BME280;27385;51.096;17.190;2023-07-29T05:00:02;99657.00;;;16.68;90.68
41706;BME280;27385;51.096;17.190;2023-07-29T05:02:33;99661.77;;;16.72;90.59
41706;BME280;27385;51.096;17.190;2023-07-29T05:05:04;99662.89;;;16.76;90.74
41706;BME280;27385;51.096;17.190;2023-07-29T05:07:35;99661.17;;;16.80;90.84
41706;BME280;27385;51.096;17.190;2023-07-29T05:10:08;99658.72;;;16.86;90.59
41706;BME280;27385;51.096;17.190;2023-07-29T05:12:39;99660.75;;;16.94;90.95
41706;BME280;27385;51.096;17.190;2023-07-29T05:15:11;99662.82;;;17.03;90.78
41706;BME280;27385;51.096;17.190;2023-07-29T05:17:42;99660.17;;;17.11;90.79
41706;BME280;27385;51.096;17.190;2023-07-29T05:20:13;99665.51;;;17.20;90.67
41706;BME280;27385;51.096;17.190;2023-07-29T05:22:43;99663.66;;;17.29;90.69
41706;BME280;27385;51.096;17.190;2023-07-29T05:25:15;99667.31;;;17.37;90.75
41706;BME280;27385;51.096;17.190;2023-07-29T05:27:46;99668.42;;;17.47;90.93
41706;BME280;27385;51.096;17.190;2023-07-29T05:30:17;99669.50;;;17.59;90.93
41706;BME280;27385;51.096;17.190;2023-07-29T05:32:48;99670.61;;;17.71;90.99
41706;BME280;27385;51.096;17.190;2023-07-29T05:35:19;99675.21;;;17.80;90.99
41706;BME280;27385;51.096;17.190;2023-07-29T05:37:49;99676.23;;;17.91;91.18
41706;BME280;27385;51.096;17.190;2023-07-29T05:40:20;99681.48;;;18.01;91.18
41706;BME280;27385;51.096;17.190;2023-07-29T05:42:52;99676.22;;;18.10;90.91
41706;BME280;27385;51.096;17.190;2023-07-29T05:45:23;99673.80;;;18.22;91.02
41706;BME280;27385;51.096;17.190;2023-07-29T05:47:53;99675.95;;;18.33;90.92
41706;BME280;27385;51.096;17.190;2023-07-29T05:50:27;99676.48;;;18.44;90.89
41706;BME280;27385;51.096;17.190;2023-07-29T05:52:58;99673.67;;;18.57;91.00
41706;BME280;27385;51.096;17.190;2023-07-29T05:55:29;99674.33;;;18.69;90.78
41706;BME280;27385;51.096;17.190;2023-07-29T05:58:00;99678.77;;;18.82;90.66
41706;BME280;27385;51.096;17.190;2023-07-29T06:00:30;99682.15;;;18.96;90.55
41706;BME280;27385;51.096;17.190;2023-07-29T06:03:01;99679.98;;;19.09;90.17
41706;BME280;27385;51.096;17.190;2023-07-29T06:05:32;99679.02;;;19.23;90.19
41706;BME280;27385;51.096;17.190;2023-07-29T06:08:03;99679.51;;;19.38;90.31
41706;BME280;27385;51.096;17.190;2023-07-29T06:10:34;99678.85;;;19.54;89.90
41706;BME280;27385;51.096;17.190;2023-07-29T06:13:05;99673.38;;;19.66;89.64
41706;BME280;27385;51.096;17.190;2023-07-29T06:15:36;99677.33;;;19.80;89.37
41706;BME280;27385;51.096;17.190;2023-07-29T06:18:07;99673.48;;;19.92;89.30
41706;BME280;27385;51.096;17.190;2023-07-29T06:20:37;99669.89;;;20.04;89.33
41706;BME280;27385;51.096;17.190;2023-07-29T06:23:09;99677.14;;;20.20;88.90
41706;BME280;27385;51.096;17.190;2023-07-29T06:25:40;99676.80;;;20.34;88.72
41706;BME280;27385;51.096;17.190;2023-07-29T06:28:11;99679.19;;;20.47;88.14
41706;BME280;27385;51.096;17.190;2023-07-29T06:30:42;99680.75;;;20.61;88.04
41706;BME280;27385;51.096;17.190;2023-07-29T06:33:13;99679.31;;;20.74;87.85
41706;BME280;27385;51.096;17.190;2023-07-29T06:35:44;99680.37;;;20.87;87.36
41706;BME280;27385;51.096;17.190;2023-07-29T06:38:15;99678.05;;;20.98;87.17
41706;BME280;27385;51.096;17.190;2023-07-29T06:40:50;99678.24;;;21.10;86.89
41706;BME280;27385;51.096;17.190;2023-07-29T06:43:22;99683.34;;;21.22;86.14
41706;BME280;27385;51.096;17.190;2023-07-29T06:45:53;99687.73;;;21.31;85.95
41706;BME280;27385;51.096;17.190;2023-07-29T06:48:24;99687.35;;;21.40;85.55
41706;BME280;27385;51.096;17.190;2023-07-29T06:50:55;99686.11;;;21.53;85.85
41706;BME280;27385;51.096;17.190;2023-07-29T06:53:29;99681.36;;;21.65;85.36
41706;BME280;27385;51.096;17.190;2023-07-29T06:56:00;99683.30;;;21.80;85.35
41706;BME280;27385;51.096;17.190;2023-07-29T06:58:31;99684.77;;;21.93;84.27
41706;BME280;27385;51.096;17.190;2023-07-29T07:01:02;99673.06;;;22.03;83.51
41706;BME280;27385;51.096;17.190;2023-07-29T07:03:33;99670.02;;;22.12;82.52
41706;BME280;27385;51.096;17.190;2023-07-29T07:06:04;99668.10;;;22.19;82.34
41706;BME280;27385;51.096;17.190;2023-07-29T07:08:35;99663.75;;;22.26;81.57
41706;BME280;27385;51.096;17.190;2023-07-29T07:11:06;99669.59;;;22.32;81.44
41706;BME280;27385;51.096;17.190;2023-07-29T07:13:38;99667.55;;;22.43;80.94
41706;BME280;27385;51.096;17.190;2023-07-29T07:16:09;99671.12;;;22.49;80.24
41706;BME280;27385;51.096;17.190;2023-07-29T07:18:39;99670.48;;;22.58;80.21
41706;BME280;27385;51.096;17.190;2023-07-29T07:21:10;99663.98;;;22.66;79.86
41706;BME280;27385;51.096;17.190;2023-07-29T07:23:41;99664.80;;;22.74;79.54
41706;BME280;27385;51.096;17.190;2023-07-29T07:26:12;99664.48;;;22.83;79.56
41706;BME280;27385;51.096;17.190;2023-07-29T07:28:43;99664.30;;;22.94;79.26
41706;BME280;27385;51.096;17.190;2023-07-29T07:31:13;99668.60;;;23.05;79.16
41706;BME280;27385;51.096;17.190;2023-07-29T07:33:45;99667.38;;;23.16;78.63
41706;BME280;27385;51.096;17.190;2023-07-29T07:36:16;99669.31;;;23.22;77.38
41706;BME280;27385;51.096;17.190;2023-07-29T07:38:47;99673.47;;;23.25;77.22
41706;BME280;27385;51.096;17.190;2023-07-29T07:41:18;99676.21;;;23.31;76.57
41706;BME280;27385;51.096;17.190;2023-07-29T07:43:49;99673.61;;;23.34;76.04
41706;BME280;27385;51.096;17.190;2023-07-29T07:46:20;99666.55;;;23.34;75.78
41706;BME280;27385;51.096;17.190;2023-07-29T07:48:51;99664.91;;;23.39;75.84
41706;BME280;27385;51.096;17.190;2023-07-29T07:51:22;99659.36;;;23.40;74.99
41706;BME280;27385;51.096;17.190;2023-07-29T07:53:53;99657.25;;;23.42;75.43
41706;BME280;27385;51.096;17.190;2023-07-29T07:56:24;99654.80;;;23.53;75.53
41706;BME280;27385;51.096;17.190;2023-07-29T07:58:54;99652.35;;;23.65;75.37
41706;BME280;27385;51.096;17.190;2023-07-29T08:01:25;99650.00;;;23.75;74.75
41706;BME280;27385;51.096;17.190;2023-07-29T08:03:56;99653.35;;;23.81;73.93
41706;BME280;27385;51.096;17.190;2023-07-29T08:06:27;99652.45;;;23.84;73.51
41706;BME280;27385;51.096;17.190;2023-07-29T08:08:58;99656.56;;;23.91;73.70
41706;BME280;27385;51.096;17.190;2023-07-29T08:11:29;99653.41;;;24.01;73.48
41706;BME280;27385;51.096;17.190;2023-07-29T08:14:01;99654.82;;;24.09;73.21
41706;BME280;27385;51.096;17.190;2023-07-29T08:16:32;99651.95;;;24.18;73.28
41706;BME280;27385;51.096;17.190;2023-07-29T08:19:02;99649.96;;;24.28;72.32
41706;BME280;27385;51.096;17.190;2023-07-29T08:21:33;99648.99;;;24.37;72.31
41706;BME280;27385;51.096;17.190;2023-07-29T08:24:04;99644.34;;;24.46;71.78
41706;BME280;27385;51.096;17.190;2023-07-29T08:26:36;99644.14;;;24.53;71.52
41706;BME280;27385;51.096;17.190;2023-07-29T08:29:07;99640.36;;;24.57;71.37
41706;BME280;27385;51.096;17.190;2023-07-29T08:31:38;99632.20;;;24.69;71.27
41706;BME280;27385;51.096;17.190;2023-07-29T08:34:09;99632.16;;;24.84;71.70
41706;BME280;27385;51.096;17.190;2023-07-29T08:36:40;99633.05;;;25.01;70.90
41706;BME280;27385;51.096;17.190;2023-07-29T08:39:11;99627.26;;;25.09;70.08
41706;BME280;27385;51.096;17.190;2023-07-29T08:41:51;99623.98;;;25.16;69.59
41706;BME280;27385;51.096;17.190;2023-07-29T08:44:25;99625.45;;;25.19;69.28
41706;BME280;27385;51.096;17.190;2023-07-29T08:46:57;99623.02;;;25.15;68.49
41706;BME280;27385;51.096;17.190;2023-07-29T08:49:31;99620.15;;;25.13;68.35
41706;BME280;27385;51.096;17.190;2023-07-29T08:52:02;99620.14;;;25.13;68.00
41706;BME280;27385;51.096;17.190;2023-07-29T08:54:34;99616.14;;;25.13;68.02
41706;BME280;27385;51.096;17.190;2023-07-29T08:57:07;99611.23;;;25.18;68.14
41706;BME280;27385;51.096;17.190;2023-07-29T08:59:38;99607.55;;;25.25;67.75
41706;BME280;27385;51.096;17.190;2023-07-29T09:02:10;99607.19;;;25.35;67.79
41706;BME280;27385;51.096;17.190;2023-07-29T09:04:41;99606.16;;;25.44;67.33
41706;BME280;27385;51.096;17.190;2023-07-29T09:07:13;99605.02;;;25.49;66.72
41706;BME280;27385;51.096;17.190;2023-07-29T09:09:44;99605.40;;;25.52;66.17
41706;BME280;27385;51.096;17.190;2023-07-29T09:12:16;99600.89;;;25.55;65.89
41706;BME280;27385;51.096;17.190;2023-07-29T09:14:47;99598.37;;;25.59;65.87
41706;BME280;27385;51.096;17.190;2023-07-29T09:17:22;99600.27;;;25.68;65.59
41706;BME280;27385;51.096;17.190;2023-07-29T09:19:53;99598.54;;;25.73;65.28
41706;BME280;27385;51.096;17.190;2023-07-29T09:22:25;99601.75;;;25.74;64.87
41706;BME280;27385;51.096;17.190;2023-07-29T09:25:00;99599.36;;;25.76;64.62
41706;BME280;27385;51.096;17.190;2023-07-29T09:27:32;99601.27;;;25.85;64.29
41706;BME280;27385;51.096;17.190;2023-07-29T09:30:16;99604.42;;;25.94;63.96
41706;BME280;27385;51.096;17.190;2023-07-29T09:32:47;99601.27;;;26.02;63.69
41706;BME280;27385;51.096;17.190;2023-07-29T09:35:23;99599.95;;;26.03;62.96
41706;BME280;27385;51.096;17.190;2023-07-29T09:37:55;99598.31;;;26.06;63.03
41706;BME280;27385;51.096;17.190;2023-07-29T09:40:26;99596.92;;;26.14;62.53
41706;BME280;27385;51.096;17.190;2023-07-29T09:42:57;99592.81;;;26.22;62.09
41706;BME280;27385;51.096;17.190;2023-07-29T09:45:28;99585.89;;;26.30;61.86
41706;BME280;27385;51.096;17.190;2023-07-29T09:47:59;99584.08;;;26.40;61.70
41706;BME280;27385;51.096;17.190;2023-07-29T09:50:32;99577.85;;;26.47;60.49
41706;BME280;27385;51.096;17.190;2023-07-29T09:53:03;99581.52;;;26.52;60.86
41706;BME280;27385;51.096;17.190;2023-07-29T09:55:36;99582.48;;;26.64;60.90
41706;BME280;27385;51.096;17.190;2023-07-29T09:58:07;99582.30;;;26.79;60.70
41706;BME280;27385;51.096;17.190;2023-07-29T10:00:39;99581.63;;;26.91;60.08
41706;BME280;27385;51.096;17.190;2023-07-29T10:03:11;99583.79;;;27.00;59.44
41706;BME280;27385;51.096;17.190;2023-07-29T10:05:44;99576.45;;;26.99;58.75
41706;BME280;27385;51.096;17.190;2023-07-29T10:08:16;99572.83;;;26.96;59.25
41706;BME280;27385;51.096;17.190;2023-07-29T10:10:48;99571.54;;;27.02;58.97
41706;BME280;27385;51.096;17.190;2023-07-29T10:13:19;99578.21;;;27.10;58.58
41706;BME280;27385;51.096;17.190;2023-07-29T10:15:51;99572.10;;;27.16;58.25
41706;BME280;27385;51.096;17.190;2023-07-29T10:18:24;99573.64;;;27.20;57.77
41706;BME280;27385;51.096;17.190;2023-07-29T10:20:56;99573.94;;;27.20;57.81
41706;BME280;27385;51.096;17.190;2023-07-29T10:23:38;99571.15;;;27.23;57.19
41706;BME280;27385;51.096;17.190;2023-07-29T10:26:15;99571.98;;;27.21;57.30
41706;BME280;27385;51.096;17.190;2023-07-29T10:28:48;99568.19;;;27.24;57.15
41706;BME280;27385;51.096;17.190;2023-07-29T10:31:24;99570.77;;;27.24;56.91
41706;BME280;27385;51.096;17.190;2023-07-29T10:33:55;99571.27;;;27.25;57.35
41706;BME280;27385;51.096;17.190;2023-07-29T10:36:27;99567.97;;;27.35;57.50
41706;BME280;27385;51.096;17.190;2023-07-29T10:39:00;99566.73;;;27.47;56.40
41706;BME280;27385;51.096;17.190;2023-07-29T10:41:58;99561.34;;;27.56;56.50
41706;BME280;27385;51.096;17.190;2023-07-29T10:44:50;99558.45;;;27.64;55.74
41706;BME280;27385;51.096;17.190;2023-07-29T10:47:23;99555.66;;;27.59;55.53
41706;BME280;27385;51.096;17.190;2023-07-29T10:49:55;99550.75;;;27.52;55.34
41706;BME280;27385;51.096;17.190;2023-07-29T10:52:42;99546.09;;;27.47;55.35
41706;BME280;27385;51.096;17.190;2023-07-29T10:55:28;99541.34;;;27.48;55.43
41706;BME280;27385;51.096;17.190;2023-07-29T10:58:11;99536.27;;;27.62;55.77
41706;BME280;27385;51.096;17.190;2023-07-29T11:00:45;99528.38;;;27.73;54.97
41706;BME280;27385;51.096;17.190;2023-07-29T11:03:16;99525.41;;;27.78;55.07
41706;BME280;27385;51.096;17.190;2023-07-29T11:05:52;99525.19;;;27.85;54.78
41706;BME280;27385;51.096;17.190;2023-07-29T11:08:26;99522.60;;;27.92;54.24
41706;BME280;27385;51.096;17.190;2023-07-29T11:11:03;99517.92;;;27.90;53.91
41706;BME280;27385;51.096;17.190;2023-07-29T11:13:36;99512.79;;;27.91;54.06
41706;BME280;27385;51.096;17.190;2023-07-29T11:16:09;99510.23;;;27.95;53.52
41706;BME280;27385;51.096;17.190;2023-07-29T11:18:41;99503.33;;;27.99;53.64
41706;BME280;27385;51.096;17.190;2023-07-29T11:21:15;99497.10;;;28.05;53.52
41706;BME280;27385;51.096;17.190;2023-07-29T11:23:47;99499.34;;;28.13;53.47
41706;BME280;27385;51.096;17.190;2023-07-29T11:26:19;99494.98;;;28.23;52.90
41706;BME280;27385;51.096;17.190;2023-07-29T11:28:51;99493.69;;;28.30;52.52
41706;BME280;27385;51.096;17.190;2023-07-29T11:31:22;99491.45;;;28.36;52.70
41706;BME280;27385;51.096;17.190;2023-07-29T11:33:53;99494.58;;;28.40;52.24
41706;BME280;27385;51.096;17.190;2023-07-29T11:36:24;99486.89;;;28.38;51.92
41706;BME280;27385;51.096;17.190;2023-07-29T11:38:56;99484.73;;;28.41;52.17
41706;BME280;27385;51.096;17.190;2023-07-29T11:41:28;99484.55;;;28.47;51.90
41706;BME280;27385;51.096;17.190;2023-07-29T11:43:58;99482.29;;;28.54;51.71
41706;BME280;27385;51.096;17.190;2023-07-29T11:46:29;99477.80;;;28.53;51.02
41706;BME280;27385;51.096;17.190;2023-07-29T11:49:02;99470.92;;;28.51;50.63
41706;BME280;27385;51.096;17.190;2023-07-29T11:51:33;99467.66;;;28.41;50.51
41706;BME280;27385;51.096;17.190;2023-07-29T11:54:04;99462.05;;;28.41;50.70
41706;BME280;27385;51.096;17.190;2023-07-29T11:56:35;99463.48;;;28.50;50.98
41706;BME280;27385;51.096;17.190;2023-07-29T11:59:08;99463.86;;;28.57;50.85
41706;BME280;27385;51.096;17.190;2023-07-29T12:01:39;99464.77;;;28.63;50.19
41706;BME280;27385;51.096;17.190;2023-07-29T12:04:11;99460.86;;;28.62;50.02
41706;BME280;27385;51.096;17.190;2023-07-29T12:06:43;99461.95;;;28.64;50.00
41706;BME280;27385;51.096;17.190;2023-07-29T12:09:14;99462.17;;;28.63;49.63
41706;BME280;27385;51.096;17.190;2023-07-29T12:11:45;99468.60;;;28.58;49.65
41706;BME280;27385;51.096;17.190;2023-07-29T12:14:17;99466.65;;;28.56;49.98
41706;BME280;27385;51.096;17.190;2023-07-29T12:16:49;99466.63;;;28.56;49.78
41706;BME280;27385;51.096;17.190;2023-07-29T12:19:21;99468.05;;;28.58;49.79
41706;BME280;27385;51.096;17.190;2023-07-29T12:21:55;99471.27;;;28.61;49.77
41706;BME280;27385;51.096;17.190;2023-07-29T12:24:26;99469.16;;;28.59;49.17
41706;BME280;27385;51.096;17.190;2023-07-29T12:26:57;99465.25;;;28.59;48.97
41706;BME280;27385;51.096;17.190;2023-07-29T12:29:29;99465.17;;;28.56;49.01
41706;BME280;27385;51.096;17.190;2023-07-29T12:32:02;99461.70;;;28.51;48.89
41706;BME280;27385;51.096;17.190;2023-07-29T12:34:33;99460.66;;;28.50;48.54
41706;BME280;27385;51.096;17.190;2023-07-29T12:37:06;99456.14;;;28.47;47.60
41706;BME280;27385;51.096;17.190;2023-07-29T12:39:42;99450.31;;;28.43;47.79
41706;BME280;27385;51.096;17.190;2023-07-29T12:42:13;99449.61;;;28.41;47.15
41706;BME280;27385;51.096;17.190;2023-07-29T12:44:44;99444.80;;;28.40;46.86
41706;BME280;27385;51.096;17.190;2023-07-29T12:47:15;99439.55;;;28.44;47.27
41706;BME280;27385;51.096;17.190;2023-07-29T12:49:47;99434.46;;;28.45;46.67
41706;BME280;27385;51.096;17.190;2023-07-29T12:52:18;99433.23;;;28.44;46.76
41706;BME280;27385;51.096;17.190;2023-07-29T12:54:49;99430.27;;;28.44;46.79
41706;BME280;27385;51.096;17.190;2023-07-29T12:57:20;99429.29;;;28.45;46.35
41706;BME280;27385;51.096;17.190;2023-07-29T12:59:52;99426.07;;;28.41;46.31
41706;BME280;27385;51.096;17.190;2023-07-29T13:02:23;99420.02;;;28.41;46.17
41706;BME280;27385;51.096;17.190;2023-07-29T13:04:54;99424.02;;;28.46;46.00
41706;BME280;27385;51.096;17.190;2023-07-29T13:07:26;99418.73;;;28.48;46.21
41706;BME280;27385;51.096;17.190;2023-07-29T13:09:57;99418.20;;;28.51;46.32
41706;BME280;27385;51.096;17.190;2023-07-29T13:12:28;99420.17;;;28.51;45.91
41706;BME280;27385;51.096;17.190;2023-07-29T13:14:59;99418.16;;;28.46;45.99